CST,Max TemperatureF,Mean TemperatureF,Min TemperatureF,Max Dew PointF,MeanDew PointF,Min DewpointF,Max Humidity, Mean Humidity, Min Humidity, Max Sea Level PressureIn, Mean Sea Level PressureIn, Min Sea Level PressureIn, Max VisibilityMiles, Mean VisibilityMiles, Min VisibilityMiles, Max Wind SpeedMPH, Mean Wind SpeedMPH, Max Gust SpeedMPH,PrecipitationIn, CloudCover, Events, WindDirDegrees
2013-2-1,5,0,-5,3,-4,-9,92,78,66,30.27,30.17,30.10,10,8,1,21,12,26,0.00,4,Snow,253
2013-2-2,8,4,0,7,1,-6,92,80,62,30.10,30.04,29.99,10,7,0,12,3,,0.00,6,Snow,302
2013-2-3,15,9,3,12,5,0,93,81,67,30.01,29.97,29.91,10,8,2,18,6,,0.00,6,Snow,255
2013-2-4,15,10,5,12,7,0,93,82,67,29.99,29.94,29.90,10,6,1,9,3,,0.00,5,Snow,349
2013-2-5,24,12,0,21,11,-4,93,83,67,30.07,29.89,29.76,10,8,0,18,5,23,0.00,6,Snow,264
2013-2-6,32,16,1,28,16,0,100,83,64,30.21,30.13,30.07,10,8,4,15,4,18,0.00,4,,173
2013-2-7,32,26,21,30,28,12,100,93,47,30.09,30.01,29.90,5,2,0,13,7,22,0.01,8,Snow,79
2013-2-8,21,14,6,19,14,5,100,92,85,30.38,30.25,30.01,10,8,3,13,8,21,0.00,6,Snow,331
2013-2-9,26,14,1,23,13,0,100,95,80,30.38,30.25,30.07,10,5,0,10,2,,0.00,4,Fog,161
2013-2-10,41,31,21,41,31,21,100,96,81,30.07,29.72,29.42,10,7,1,16,6,23,0.00,6,Rain,154
2013-2-11,37,32,26,32,25,19,87,81,74,29.96,29.67,29.42,10,10,7,29,19,39,0.00,8,Snow,250
2013-2-12,26,22,19,19,18,16,93,84,69,30.06,29.97,29.86,10,10,7,18,11,23,0.00,5,,246
2013-2-13,37,27,17,28,24,18,100,87,70,29.86,29.75,29.68,10,8,3,13,6,,0.00,3,,220
2013-2-14,33,30,26,32,27,21,100,87,74,29.96,29.76,29.57,10,8,2,23,8,30,0.00,7,Rain-Snow,245
2013-2-15,26,19,12,27,11,5,100,73,58,30.17,30.11,29.96,10,9,2,14,10,20,0.00,2,Snow,307
2013-2-16,14,10,6,3,1,0,85,70,53,30.17,30.14,30.11,10,10,10,14,8,18,0.00,2,,293
2013-2-17,24,14,3,12,3,-2,78,64,39,30.18,30.10,29.97,10,10,10,14,5,18,0.00,2,,200
2013-2-18,44,34,24,39,27,12,100,80,59,29.96,29.62,29.41,10,7,1,20,13,25,0.11,5,Rain-Snow,191
2013-2-19,28,17,6,28,10,0,100,83,67,30.13,29.79,29.49,10,5,0,29,19,36,0.00,6,Snow,280
2013-2-20,17,10,3,9,4,-2,85,76,68,30.35,30.27,30.13,10,10,10,16,12,20,0.00,0,,298
2013-2-21,26,18,10,21,15,7,93,85,73,30.40,30.26,30.06,10,10,2,21,8,28,0.00,6,Snow,32
2013-2-22,28,26,23,27,24,21,100,92,86,30.06,29.87,29.78,10,5,0,17,12,24,0.02,8,Snow,165
2013-2-23,26,22,19,23,19,16,93,84,69,29.91,29.87,29.82,10,9,5,14,9,17,0.00,5,Snow,241
2013-2-24,33,25,15,23,18,14,100,84,60,30.13,30.04,29.92,10,9,2,10,7,,0.00,1,,282
2013-2-25,37,24,12,27,20,12,100,86,56,30.16,30.10,30.03,10,6,2,8,1,,0.00,1,,97
2013-2-26,32,30,28,30,28,25,100,91,75,30.02,29.77,29.59,10,6,0,25,13,34,0.01,5,Snow,48
2013-2-27,32,30,28,30,29,27,100,97,87,29.73,29.63,29.56,10,4,1,17,11,20,0.01,8,Snow,350
2013-2-28,32,28,23,30,25,19,100,87,74,30.10,29.94,29.73,10,9,4,15,12,23,0.00,8,Snow,344